Siam — SGIP — position and weather

sailwx.info

Track history (hours):
 
Tides and Currents Weather Stations Pressure Air Temp Water Temp Dewpoint Dewpoint Depression Visibility Wind Speed Wind Dir Waves Ship Positions

Siam

Last reported at 2015-Jul-03 09:29 UTC. Time now 2015-Jul-04 18:59 UTC.
Position N 55°57' E 012°41'.

Length 22 m.

Type: Passenger vessel. MMSI: 265572320.

Date/timePositionNaut miles runAvg speedWind from/ knotsBaromVisibWave heightAir tempDewpointWater temp
2015-Jul-03 09:29N 55°57' E 012°41'0 0.0
2015-Jul-02 14:17N 55°56' E 012°41'1 0.4
2015-Jul-02 12:28N 55°56' E 012°42'0 0.1
2015-Jul-02 09:10N 55°56' E 012°41'0 0.5
2015-Jul-02 08:19N 55°57' E 012°41'3 0.1
2015-Jul-01 10:06N 55°58' E 012°44'3 6.3
2015-Jul-01 09:33N 55°55' E 012°44'0 0.2
2015-Jul-01 08:33N 55°55' E 012°44'0 0.1
2015-Jul-01 07:30N 55°55' E 012°44'2 2.0
2015-Jul-01 06:32N 55°56' E 012°42'4 3.8
2015-Jul-01 05:32N 55°60' E 012°45'0 0.0
2015-Jul-01 04:32N 55°60' E 012°45'0 0.0
2015-Jul-01 03:29N 55°60' E 012°45'0 0.0
2015-Jul-01 02:32N 55°60' E 012°45'0 0.0
2015-Jul-01 01:32N 55°60' E 012°45'0 0.0
2015-Jul-01 00:32N 55°60' E 012°45'0 0.0
2015-Jun-30 23:32N 55°60' E 012°45'0 0.0
2015-Jun-30 22:29N 55°60' E 012°45'0 0.0
2015-Jun-30 21:32N 55°60' E 012°45'0 0.0
2015-Jun-30 20:32N 55°60' E 012°45'0 0.0
2015-Jun-30 19:26N 55°60' E 012°45'0 0.0
2015-Jun-30 18:26N 55°60' E 012°45'0 0.0
2015-Jun-30 17:32N 55°60' E 012°45'0 0.0
2015-Jun-30 16:32N 55°60' E 012°45'0 0.0
2015-Jun-30 15:32N 55°60' E 012°45'0 0.0
2015-Jun-30 14:32N 55°60' E 012°45'0 0.0
2015-Jun-30 13:32N 55°60' E 012°45'0 0.0
2015-Jun-30 12:29N 55°60' E 012°45'0 0.0
2015-Jun-30 11:32N 55°60' E 012°45'0 0.0
2015-Jun-30 10:32N 55°60' E 012°45'4 3.3
2015-Jun-30 09:27N 55°56' E 012°42'0 0.4
2015-Jun-30 08:33N 55°57' E 012°42'0 0.2
2015-Jun-30 07:30N 55°57' E 012°42'0 0.3
2015-Jun-30 06:27N 55°57' E 012°41'3 3.5
2015-Jun-30 05:32N 55°60' E 012°45'0 0.0
2015-Jun-30 04:32N 55°60' E 012°45'0 0.0
2015-Jun-30 03:26N 55°60' E 012°45'0 0.0
2015-Jun-30 02:20N 55°60' E 012°45'0 0.0
2015-Jun-30 01:32N 55°60' E 012°45'0 0.0
2015-Jun-30 00:32N 55°60' E 012°45'0 0.0
2015-Jun-29 23:32N 55°60' E 012°45'0 0.0
2015-Jun-29 22:32N 55°60' E 012°45'0 0.0
2015-Jun-29 21:26N 55°60' E 012°45'0 0.0
2015-Jun-29 20:29N 55°60' E 012°45'0 0.0
2015-Jun-29 19:32N 55°60' E 012°45'0 0.0
2015-Jun-29 18:32N 55°60' E 012°45'0 0.0
2015-Jun-29 17:29N 55°60' E 012°45'0 0.0
2015-Jun-29 13:31N 55°60' E 012°45'0 0.0
2015-Jun-29 12:25N 55°60' E 012°45'0 0.0
2015-Jun-29 11:31N 55°60' E 012°45'0 0.0
2015-Jun-29 10:31N 55°60' E 012°45'0 0.0
2015-Jun-29 09:31N 55°60' E 012°45'0 0.0
2015-Jun-29 08:31N 55°60' E 012°45'0 0.0
2015-Jun-29 07:28N 55°60' E 012°45'0 0.0
2015-Jun-29 06:31N 55°60' E 012°45'0 0.0
2015-Jun-29 05:28N 55°60' E 012°45'0 0.0
2015-Jun-29 04:31N 55°60' E 012°45'0 0.0
2015-Jun-29 03:31N 55°60' E 012°45'0 0.0
2015-Jun-29 02:31N 55°60' E 012°45'0 0.0
2015-Jun-29 01:31N 55°60' E 012°45'0 0.0
2015-Jun-29 00:31N 55°60' E 012°45'0 0.0
2015-Jun-28 23:31N 55°60' E 012°45'0 0.0
2015-Jun-28 22:31N 55°60' E 012°45'0 0.0
2015-Jun-28 21:28N 55°60' E 012°45'0 0.0
2015-Jun-28 20:31N 55°60' E 012°45'0 0.0
2015-Jun-28 19:31N 55°60' E 012°45'0 0.0
2015-Jun-28 18:31N 55°60' E 012°45'0 0.0
2015-Jun-28 17:31N 55°60' E 012°45'0 0.0
2015-Jun-28 16:31N 55°60' E 012°45'0 0.0
2015-Jun-28 15:31N 55°60' E 012°45'0 0.0
2015-Jun-28 14:31N 55°60' E 012°45'0 0.0
2015-Jun-28 13:31N 55°60' E 012°45'0 0.0
2015-Jun-28 12:31N 55°60' E 012°45'0 0.0
2015-Jun-28 11:28N 55°60' E 012°45'0 0.0
2015-Jun-28 10:32N 55°60' E 012°45'4 3.9
2015-Jun-28 09:34N 55°56' E 012°42'0 0.2
2015-Jun-28 08:33N 55°56' E 012°41'0 0.1
2015-Jun-28 07:33N 55°56' E 012°41'3 2.7
2015-Jun-28 06:33N 55°59' E 012°40'3 2.4
2015-Jun-28 05:25N 55°60' E 012°45'0 0.0
2015-Jun-28 04:31N 55°60' E 012°45'0 0.0
2015-Jun-28 03:31N 55°60' E 012°45'0 0.0
2015-Jun-28 02:31N 55°60' E 012°45'0 0.0
2015-Jun-28 01:31N 55°60' E 012°45'0 0.0
2015-Jun-28 00:25N 55°60' E 012°45'0 0.0
2015-Jun-27 23:31N 55°60' E 012°45'0 0.0
2015-Jun-27 22:31N 55°60' E 012°45'0 0.0
2015-Jun-27 21:31N 55°60' E 012°45'0 0.0
2015-Jun-27 20:31N 55°60' E 012°45'0 0.0
2015-Jun-27 19:31N 55°60' E 012°45'0 0.0
2015-Jun-27 18:31N 55°60' E 012°45'0 0.0
2015-Jun-27 17:31N 55°60' E 012°45'0 0.0
2015-Jun-27 16:31N 55°60' E 012°45'0 0.0
2015-Jun-27 15:31N 55°60' E 012°45'4 4.4
2015-Jun-27 14:33N 55°59' E 012°37'0 0.1
2015-Jun-27 13:33N 55°59' E 012°37'0 0.2
2015-Jun-27 12:33N 55°59' E 012°37'4 3.8
2015-Jun-27 11:33N 55°59' E 012°44'0 0.5
2015-Jun-27 10:33N 55°60' E 012°45'4 4.0
2015-Jun-27 09:28N 55°55' E 012°44'2 1.7
2015-Jun-27 08:32N 55°57' E 012°42'1 1.4
2015-Jun-27 07:34N 55°58' E 012°41'0 0.1
2015-Jun-27 06:33N 55°58' E 012°41'3 2.6
2015-Jun-27 05:33N 55°60' E 012°45'0 0.0
2015-Jun-27 04:27N 55°60' E 012°45'0 0.0
2015-Jun-27 03:33N 55°60' E 012°45'0 0.0
2015-Jun-27 02:33N 55°60' E 012°45'0 0.0
2015-Jun-27 01:33N 55°60' E 012°45'0 0.0
2015-Jun-27 00:33N 55°60' E 012°45'0 0.0
2015-Jun-26 23:33N 55°60' E 012°45'0 0.0
2015-Jun-26 22:33N 55°60' E 012°45'0 0.0
2015-Jun-26 21:30N 55°60' E 012°45'0 0.0
2015-Jun-26 20:33N 55°60' E 012°45'0 0.0
2015-Jun-26 19:33N 55°60' E 012°45'0 0.0
2015-Jun-26 18:33N 55°60' E 012°45'0 0.0
2015-Jun-26 17:27N 55°60' E 012°45'0 0.0
2015-Jun-26 16:33N 55°60' E 012°45'0 0.0
2015-Jun-26 15:30N 55°60' E 012°45'0 0.0
2015-Jun-26 14:33N 55°60' E 012°45'0 0.0
2015-Jun-26 13:33N 55°60' E 012°45'2 1.6
2015-Jun-26 12:33N 55°58' E 012°43'3 2.7
2015-Jun-26 11:33N 55°56' E 012°43'1 0.8
2015-Jun-26 10:33N 55°55' E 012°44'2 1.6
2015-Jun-26 09:26N 55°56' E 012°42'1 1.3
2015-Jun-26 08:28N 55°58' E 012°41'0 0.0
2015-Jun-26 07:32N 55°58' E 012°41'3 2.7
2015-Jun-26 06:31N 55°60' E 012°45'0 0.0
2015-Jun-26 05:28N 55°60' E 012°45'0 0.0
2015-Jun-26 04:31N 55°60' E 012°45'0 0.0
2015-Jun-26 03:31N 55°60' E 012°45'0 0.0
2015-Jun-26 02:31N 55°60' E 012°45'0 0.0
2015-Jun-26 01:32N 55°60' E 012°45'0 0.0
2015-Jun-26 00:31N 55°60' E 012°45'0 0.0
2015-Jun-25 23:31N 55°60' E 012°45'0 0.0
2015-Jun-25 22:31N 55°60' E 012°45'0 0.0
2015-Jun-25 21:31N 55°60' E 012°45'0 0.0
2015-Jun-25 20:28N 55°60' E 012°45'0 0.0
2015-Jun-25 19:31N 55°60' E 012°45'0 0.0
2015-Jun-25 18:31N 55°60' E 012°45'0 0.0
2015-Jun-25 17:32N 55°60' E 012°45'0 0.0
2015-Jun-25 16:31N 55°60' E 012°45'0 0.0
2015-Jun-25 15:31N 55°60' E 012°45'0 0.0
2015-Jun-25 14:31N 55°60' E 012°45'0 0.0
2015-Jun-25 13:25N 55°60' E 012°45'0 0.0
2015-Jun-25 12:25N 55°60' E 012°45'0 0.0
2015-Jun-25 11:31N 55°60' E 012°45'0 0.0
2015-Jun-25 10:22N 55°60' E 012°45'0 0.0
2015-Jun-25 09:31N 55°60' E 012°45'0 0.0
2015-Jun-25 08:28N 55°60' E 012°45'0 0.0
2015-Jun-25 07:31N 55°60' E 012°45'0 0.0
2015-Jun-25 06:31N 55°60' E 012°45'0 0.0
2015-Jun-25 05:29N 55°60' E 012°45'0 0.0
2015-Jun-25 04:32N 55°60' E 012°45'0 0.0
2015-Jun-25 03:32N 55°60' E 012°45'0 0.0
2015-Jun-25 02:32N 55°60' E 012°45'0 0.0
2015-Jun-25 01:32N 55°60' E 012°45'0 0.0
2015-Jun-25 00:26N 55°60' E 012°45'0 0.0
2015-Jun-24 23:32N 55°60' E 012°45'0 0.0
2015-Jun-24 22:26N 55°60' E 012°45'0 0.0
2015-Jun-24 21:32N 55°60' E 012°45'0 0.0
2015-Jun-24 20:32N 55°60' E 012°45'0 0.0
2015-Jun-24 19:32N 55°60' E 012°45'0 0.0
2015-Jun-24 18:32N 55°60' E 012°45'0 0.0
2015-Jun-24 17:32N 55°60' E 012°45'0 0.0
2015-Jun-24 16:32N 55°60' E 012°45'0 0.0
2015-Jun-24 15:29N 55°60' E 012°45'0 0.0
2015-Jun-24 14:32N 55°60' E 012°45'0 0.0
2015-Jun-24 13:32N 55°60' E 012°45'0 0.0
2015-Jun-24 12:32N 55°60' E 012°45'0 0.0
2015-Jun-24 11:32N 55°60' E 012°45'0 0.0
2015-Jun-24 10:33N 55°60' E 012°45'3 2.6
2015-Jun-24 09:28N 55°57' E 012°41'0 0.1
2015-Jun-24 08:23N 55°58' E 012°41'0 0.0
2015-Jun-24 07:09N 55°57' E 012°41'0 0.1
2015-Jun-24 06:32N 55°58' E 012°41'3 2.7
2015-Jun-24 05:32N 55°60' E 012°45'0 0.0
2015-Jun-24 04:33N 55°60' E 012°45'0 0.0
2015-Jun-24 03:33N 55°60' E 012°45'0 0.0
2015-Jun-24 02:30N 55°60' E 012°45'0 0.0
2015-Jun-24 01:33N 55°60' E 012°45'0 0.0
2015-Jun-24 00:33N 55°60' E 012°45'0 0.0
2015-Jun-23 23:31N 55°60' E 012°45'0 0.0
2015-Jun-23 22:34N 55°60' E 012°45'0 0.0
2015-Jun-23 21:31N 55°60' E 012°45'0 0.0
2015-Jun-23 20:34N 55°60' E 012°45'0 0.0
2015-Jun-23 19:31N 55°60' E 012°45'0 0.0
2015-Jun-23 19:04N 55°60' E 012°45'  
Track history (hours):
 
Tides and Currents Weather Stations Pressure Air Temp Water Temp Dewpoint Dewpoint Depression Visibility Wind Speed Wind Dir Waves Ship Positions

Siam

Last reported at 2015-Jul-03 09:29 UTC. Time now 2015-Jul-04 18:59 UTC.
Position N 55°57' E 012°41'.

Length 22 m.

Type: Passenger vessel. MMSI: 265572320.

Date/timePositionNaut miles runAvg speedWind from/ knotsBaromVisibWave heightAir tempDewpointWater temp
2015-Jul-03 09:29N 55°57' E 012°41'0 0.0
2015-Jul-02 14:17N 55°56' E 012°41'1 0.4
2015-Jul-02 12:28N 55°56' E 012°42'0 0.1
2015-Jul-02 09:10N 55°56' E 012°41'0 0.5
2015-Jul-02 08:19N 55°57' E 012°41'3 0.1
2015-Jul-01 10:06N 55°58' E 012°44'3 6.3
2015-Jul-01 09:33N 55°55' E 012°44'0 0.2
2015-Jul-01 08:33N 55°55' E 012°44'0 0.1
2015-Jul-01 07:30N 55°55' E 012°44'2 2.0
2015-Jul-01 06:32N 55°56' E 012°42'4 3.8
2015-Jul-01 05:32N 55°60' E 012°45'0 0.0
2015-Jul-01 04:32N 55°60' E 012°45'0 0.0
2015-Jul-01 03:29N 55°60' E 012°45'0 0.0
2015-Jul-01 02:32N 55°60' E 012°45'0 0.0
2015-Jul-01 01:32N 55°60' E 012°45'0 0.0
2015-Jul-01 00:32N 55°60' E 012°45'0 0.0
2015-Jun-30 23:32N 55°60' E 012°45'0 0.0
2015-Jun-30 22:29N 55°60' E 012°45'0 0.0
2015-Jun-30 21:32N 55°60' E 012°45'0 0.0
2015-Jun-30 20:32N 55°60' E 012°45'0 0.0
2015-Jun-30 19:26N 55°60' E 012°45'0 0.0
2015-Jun-30 18:26N 55°60' E 012°45'0 0.0
2015-Jun-30 17:32N 55°60' E 012°45'0 0.0
2015-Jun-30 16:32N 55°60' E 012°45'0 0.0
2015-Jun-30 15:32N 55°60' E 012°45'0 0.0
2015-Jun-30 14:32N 55°60' E 012°45'0 0.0
2015-Jun-30 13:32N 55°60' E 012°45'0 0.0
2015-Jun-30 12:29N 55°60' E 012°45'0 0.0
2015-Jun-30 11:32N 55°60' E 012°45'0 0.0
2015-Jun-30 10:32N 55°60' E 012°45'4 3.3
2015-Jun-30 09:27N 55°56' E 012°42'0 0.4
2015-Jun-30 08:33N 55°57' E 012°42'0 0.2
2015-Jun-30 07:30N 55°57' E 012°42'0 0.3
2015-Jun-30 06:27N 55°57' E 012°41'3 3.5
2015-Jun-30 05:32N 55°60' E 012°45'0 0.0
2015-Jun-30 04:32N 55°60' E 012°45'0 0.0
2015-Jun-30 03:26N 55°60' E 012°45'0 0.0
2015-Jun-30 02:20N 55°60' E 012°45'0 0.0
2015-Jun-30 01:32N 55°60' E 012°45'0 0.0
2015-Jun-30 00:32N 55°60' E 012°45'0 0.0
2015-Jun-29 23:32N 55°60' E 012°45'0 0.0
2015-Jun-29 22:32N 55°60' E 012°45'0 0.0
2015-Jun-29 21:26N 55°60' E 012°45'0 0.0
2015-Jun-29 20:29N 55°60' E 012°45'0 0.0
2015-Jun-29 19:32N 55°60' E 012°45'0 0.0
2015-Jun-29 18:32N 55°60' E 012°45'0 0.0
2015-Jun-29 17:29N 55°60' E 012°45'0 0.0
2015-Jun-29 13:31N 55°60' E 012°45'0 0.0
2015-Jun-29 12:25N 55°60' E 012°45'0 0.0
2015-Jun-29 11:31N 55°60' E 012°45'0 0.0
2015-Jun-29 10:31N 55°60' E 012°45'0 0.0
2015-Jun-29 09:31N 55°60' E 012°45'0 0.0
2015-Jun-29 08:31N 55°60' E 012°45'0 0.0
2015-Jun-29 07:28N 55°60' E 012°45'0 0.0
2015-Jun-29 06:31N 55°60' E 012°45'0 0.0
2015-Jun-29 05:28N 55°60' E 012°45'0 0.0
2015-Jun-29 04:31N 55°60' E 012°45'0 0.0
2015-Jun-29 03:31N 55°60' E 012°45'0 0.0
2015-Jun-29 02:31N 55°60' E 012°45'0 0.0
2015-Jun-29 01:31N 55°60' E 012°45'0 0.0
2015-Jun-29 00:31N 55°60' E 012°45'0 0.0
2015-Jun-28 23:31N 55°60' E 012°45'0 0.0
2015-Jun-28 22:31N 55°60' E 012°45'0 0.0
2015-Jun-28 21:28N 55°60' E 012°45'0 0.0
2015-Jun-28 20:31N 55°60' E 012°45'0 0.0
2015-Jun-28 19:31N 55°60' E 012°45'0 0.0
2015-Jun-28 18:31N 55°60' E 012°45'0 0.0
2015-Jun-28 17:31N 55°60' E 012°45'0 0.0
2015-Jun-28 16:31N 55°60' E 012°45'0 0.0
2015-Jun-28 15:31N 55°60' E 012°45'0 0.0
2015-Jun-28 14:31N 55°60' E 012°45'0 0.0
2015-Jun-28 13:31N 55°60' E 012°45'0 0.0
2015-Jun-28 12:31N 55°60' E 012°45'0 0.0
2015-Jun-28 11:28N 55°60' E 012°45'0 0.0
2015-Jun-28 10:32N 55°60' E 012°45'4 3.9
2015-Jun-28 09:34N 55°56' E 012°42'0 0.2
2015-Jun-28 08:33N 55°56' E 012°41'0 0.1
2015-Jun-28 07:33N 55°56' E 012°41'3 2.7
2015-Jun-28 06:33N 55°59' E 012°40'3 2.4
2015-Jun-28 05:25N 55°60' E 012°45'0 0.0
2015-Jun-28 04:31N 55°60' E 012°45'0 0.0
2015-Jun-28 03:31N 55°60' E 012°45'0 0.0
2015-Jun-28 02:31N 55°60' E 012°45'0 0.0
2015-Jun-28 01:31N 55°60' E 012°45'0 0.0
2015-Jun-28 00:25N 55°60' E 012°45'0 0.0
2015-Jun-27 23:31N 55°60' E 012°45'0 0.0
2015-Jun-27 22:31N 55°60' E 012°45'0 0.0
2015-Jun-27 21:31N 55°60' E 012°45'0 0.0
2015-Jun-27 20:31N 55°60' E 012°45'0 0.0
2015-Jun-27 19:31N 55°60' E 012°45'0 0.0
2015-Jun-27 18:31N 55°60' E 012°45'0 0.0
2015-Jun-27 17:31N 55°60' E 012°45'0 0.0
2015-Jun-27 16:31N 55°60' E 012°45'0 0.0
2015-Jun-27 15:31N 55°60' E 012°45'4 4.4
2015-Jun-27 14:33N 55°59' E 012°37'0 0.1
2015-Jun-27 13:33N 55°59' E 012°37'0 0.2
2015-Jun-27 12:33N 55°59' E 012°37'4 3.8
2015-Jun-27 11:33N 55°59' E 012°44'0 0.5
2015-Jun-27 10:33N 55°60' E 012°45'4 4.0
2015-Jun-27 09:28N 55°55' E 012°44'2 1.7
2015-Jun-27 08:32N 55°57' E 012°42'1 1.4
2015-Jun-27 07:34N 55°58' E 012°41'0 0.1
2015-Jun-27 06:33N 55°58' E 012°41'3 2.6
2015-Jun-27 05:33N 55°60' E 012°45'0 0.0
2015-Jun-27 04:27N 55°60' E 012°45'0 0.0
2015-Jun-27 03:33N 55°60' E 012°45'0 0.0
2015-Jun-27 02:33N 55°60' E 012°45'0 0.0
2015-Jun-27 01:33N 55°60' E 012°45'0 0.0
2015-Jun-27 00:33N 55°60' E 012°45'0 0.0
2015-Jun-26 23:33N 55°60' E 012°45'0 0.0
2015-Jun-26 22:33N 55°60' E 012°45'0 0.0
2015-Jun-26 21:30N 55°60' E 012°45'0 0.0
2015-Jun-26 20:33N 55°60' E 012°45'0 0.0
2015-Jun-26 19:33N 55°60' E 012°45'0 0.0
2015-Jun-26 18:33N 55°60' E 012°45'0 0.0
2015-Jun-26 17:27N 55°60' E 012°45'0 0.0
2015-Jun-26 16:33N 55°60' E 012°45'0 0.0
2015-Jun-26 15:30N 55°60' E 012°45'0 0.0
2015-Jun-26 14:33N 55°60' E 012°45'0 0.0
2015-Jun-26 13:33N 55°60' E 012°45'2 1.6
2015-Jun-26 12:33N 55°58' E 012°43'3 2.7
2015-Jun-26 11:33N 55°56' E 012°43'1 0.8
2015-Jun-26 10:33N 55°55' E 012°44'2 1.6
2015-Jun-26 09:26N 55°56' E 012°42'1 1.3
2015-Jun-26 08:28N 55°58' E 012°41'0 0.0
2015-Jun-26 07:32N 55°58' E 012°41'3 2.7
2015-Jun-26 06:31N 55°60' E 012°45'0 0.0
2015-Jun-26 05:28N 55°60' E 012°45'0 0.0
2015-Jun-26 04:31N 55°60' E 012°45'0 0.0
2015-Jun-26 03:31N 55°60' E 012°45'0 0.0
2015-Jun-26 02:31N 55°60' E 012°45'0 0.0
2015-Jun-26 01:32N 55°60' E 012°45'0 0.0
2015-Jun-26 00:31N 55°60' E 012°45'0 0.0
2015-Jun-25 23:31N 55°60' E 012°45'0 0.0
2015-Jun-25 22:31N 55°60' E 012°45'0 0.0
2015-Jun-25 21:31N 55°60' E 012°45'0 0.0
2015-Jun-25 20:28N 55°60' E 012°45'0 0.0
2015-Jun-25 19:31N 55°60' E 012°45'0 0.0
2015-Jun-25 18:31N 55°60' E 012°45'0 0.0
2015-Jun-25 17:32N 55°60' E 012°45'0 0.0
2015-Jun-25 16:31N 55°60' E 012°45'0 0.0
2015-Jun-25 15:31N 55°60' E 012°45'0 0.0
2015-Jun-25 14:31N 55°60' E 012°45'0 0.0
2015-Jun-25 13:25N 55°60' E 012°45'0 0.0
2015-Jun-25 12:25N 55°60' E 012°45'0 0.0
2015-Jun-25 11:31N 55°60' E 012°45'0 0.0
2015-Jun-25 10:22N 55°60' E 012°45'0 0.0
2015-Jun-25 09:31N 55°60' E 012°45'0 0.0
2015-Jun-25 08:28N 55°60' E 012°45'0 0.0
2015-Jun-25 07:31N 55°60' E 012°45'0 0.0
2015-Jun-25 06:31N 55°60' E 012°45'0 0.0
2015-Jun-25 05:29N 55°60' E 012°45'0 0.0
2015-Jun-25 04:32N 55°60' E 012°45'0 0.0
2015-Jun-25 03:32N 55°60' E 012°45'0 0.0
2015-Jun-25 02:32N 55°60' E 012°45'0 0.0
2015-Jun-25 01:32N 55°60' E 012°45'0 0.0
2015-Jun-25 00:26N 55°60' E 012°45'0 0.0
2015-Jun-24 23:32N 55°60' E 012°45'0 0.0
2015-Jun-24 22:26N 55°60' E 012°45'0 0.0
2015-Jun-24 21:32N 55°60' E 012°45'0 0.0
2015-Jun-24 20:32N 55°60' E 012°45'0 0.0
2015-Jun-24 19:32N 55°60' E 012°45'0 0.0
2015-Jun-24 18:32N 55°60' E 012°45'0 0.0
2015-Jun-24 17:32N 55°60' E 012°45'0 0.0
2015-Jun-24 16:32N 55°60' E 012°45'0 0.0
2015-Jun-24 15:29N 55°60' E 012°45'0 0.0
2015-Jun-24 14:32N 55°60' E 012°45'0 0.0
2015-Jun-24 13:32N 55°60' E 012°45'0 0.0
2015-Jun-24 12:32N 55°60' E 012°45'0 0.0
2015-Jun-24 11:32N 55°60' E 012°45'0 0.0
2015-Jun-24 10:33N 55°60' E 012°45'3 2.6
2015-Jun-24 09:28N 55°57' E 012°41'0 0.1
2015-Jun-24 08:23N 55°58' E 012°41'0 0.0
2015-Jun-24 07:09N 55°57' E 012°41'0 0.1
2015-Jun-24 06:32N 55°58' E 012°41'3 2.7
2015-Jun-24 05:32N 55°60' E 012°45'0 0.0
2015-Jun-24 04:33N 55°60' E 012°45'0 0.0
2015-Jun-24 03:33N 55°60' E 012°45'0 0.0
2015-Jun-24 02:30N 55°60' E 012°45'0 0.0
2015-Jun-24 01:33N 55°60' E 012°45'0 0.0
2015-Jun-24 00:33N 55°60' E 012°45'0 0.0
2015-Jun-23 23:31N 55°60' E 012°45'0 0.0
2015-Jun-23 22:34N 55°60' E 012°45'0 0.0
2015-Jun-23 21:31N 55°60' E 012°45'0 0.0
2015-Jun-23 20:34N 55°60' E 012°45'0 0.0
2015-Jun-23 19:31N 55°60' E 012°45'0 0.0
2015-Jun-23 19:04N 55°60' E 012°45'  

Dump ship's entire track history